LFMLLFMI

Guest
Details From LFML - Marseille/provence
To LFMI - Istres Le Tube Ba
Flight Number -
Tags Generated
Created
Modified
Stats Distance 13 nm / 25 km
Max Altitude 0 ft / 0 m
Waypoints 2
Social Downloads 0
Likes 0
Share VATSIM

Download

Looking for another format? Having issues loading an existing format? Contact us
Advertisement - Login to hide

Notes

Generated

Route

LFML LFMI

ID Type Via Altitude Latitude Longitude Leg Dist Tot Dist Heading (true) Name
O LFML APT - 0 ft / 0 m 43.44093˚ 5.20362˚ - 0 nm - -
O LFMI APT - 0 ft / 0 m 43.52330˚ 4.91812˚ 13 nm 13 nm 292° / 292° Istres Le Tube BA

Altitude Profile

Advertisement - Login to hide

LFML

Details ICAO LFML (MRS)
Name Marseille Provence
Region France
Timezone Europe/Paris (UTC+1.0)
Stats Elevation 74 ft / 23 m (AMSL)
Location 43.435892° 5.213282°
Runways 2
Magnetic Variation 1.552° E

METAR

LFML 132000Z AUTO 09002KT CAVOK 08/04 Q1017 NOSIG

Decode

TAF

TAF LFML 132000Z 1321/1503 09005KT 9999 SCT040 TEMPO 1321/1402 -RA BECMG 1406/1408 34005KT BECMG 1414/1416 24008KT TX14/1413Z TN07/1322Z

Decode

Departure Runways

ID Width Length Bearing (true) Bearing (mag) Surface Threshold Offset Overrun Length
13L 148 ft / 45 m 11,478 ft / 3,499 m 133.99° 132.44° Asphalt 1,115 ft / 340 m 0 ft / 0 m
13R 148 ft / 45 m 7,981 ft / 2,433 m 134.90° 133.35° Asphalt 0 ft / 0 m 0 ft / 0 m
31L 148 ft / 45 m 7,981 ft / 2,433 m 314.91° 313.36° Asphalt 344 ft / 105 m 0 ft / 0 m
31R 148 ft / 45 m 11,478 ft / 3,499 m 314.01° 312.46° Asphalt 2,165 ft / 660 m 0 ft / 0 m

LFMI

Details ICAO LFMI
Name Istres Le Tube BA
Region France
Timezone Europe/Paris (UTC+1.0)
Stats Elevation 81 ft / 25 m (AMSL)
Location 43.521242° 4.922320°
Runways 2
Magnetic Variation 1.482° E

METAR

LFMI 132000Z AUTO 08006KT CAVOK 07/03 Q1017 NOSIG

Decode

TAF

TAF LFMI 132000Z 1321/1421 09005KT 9999 SCT040 TEMPO 1321/1402 -RA BECMG 1406/1408 34005KT BECMG 1414/1416 24008KT

Decode

Destination Runways

ID Width Length Bearing (true) Bearing (mag) Surface Threshold Offset Overrun Length
15 197 ft / 60 m 12,310 ft / 3,752 m 152.71° 151.23° Concrete 0 ft / 0 m 3,963 ft / 1,208 m
15R 82 ft / 25 m 2,955 ft / 901 m 152.72° 151.24° Concrete 0 ft / 0 m 0 ft / 0 m
33 197 ft / 60 m 12,310 ft / 3,752 m 332.73° 331.25° Concrete 0 ft / 0 m 374 ft / 114 m
33L 82 ft / 25 m 2,955 ft / 901 m 332.72° 331.24° Concrete 0 ft / 0 m 0 ft / 0 m

Approach Navaids

Runway Type Ident Frequency Range Bearing (true) Bearing (mag) Slope Elevation
15 Localiser IST 111.30 MHz 18 nm / 33 km 152.72° 151.24° - 71 ft / 22 m (AMSL)
15 Glidescope IST 111.30 MHz 10 nm / 19 km 152.72° 151.24° 3.00° 71 ft / 22 m (AMSL)
15 DME IST 111.30 MHz 18 nm / 33 km - - - 125 ft / 38 m (AMSL)

Popular Alternatives